Terminal Aerodrome Forecast
Issued by NWS North Platte, NE

Home | Current Version | Previous Version | Text Only | Print | Product List | Glossary On
Versions: 1 2 3 4 5 6 7 8 9 10 11 12 13 14 15 16
336
FTUS43 KLBF 231732
TAFVTN
TAF
KVTN 231732Z 2318/2418 32006KT P6SM SCT150
     FM240900 13004KT P6SM OVC030
     FM241100 12004KT 2SM -SN OVC010
     FM241500 20004KT 1SM -SN OVC008
     FM241700 20004KT 5SM -SN BKN020=

USA.gov is the U.S. government's official web portal to all federal, state and local government web resources and services.